createdAt,value
2018-07-10T00:02:36.540Z,3.80
2018-07-10T00:05:50.184Z,3.80
2018-07-10T00:10:35.025Z,3.50
2018-07-10T00:13:03.538Z,3.23
2018-07-10T00:15:31.929Z,3.07
2018-07-10T00:18:00.385Z,2.80
2018-07-10T00:20:28.855Z,2.70
2018-07-10T00:22:57.498Z,3.03
2018-07-10T00:25:25.897Z,2.87
2018-07-10T00:27:54.428Z,2.73
2018-07-10T00:30:22.957Z,2.80
2018-07-10T00:32:51.488Z,2.40
2018-07-10T00:35:19.992Z,2.63
2018-07-10T00:37:59.782Z,2.83
2018-07-10T00:40:28.206Z,2.87
2018-07-10T00:42:56.605Z,2.63
2018-07-10T00:45:25.084Z,2.90
2018-07-10T00:47:53.477Z,3.60
2018-07-10T00:50:21.881Z,2.60
2018-07-10T00:52:50.384Z,2.30
2018-07-10T00:55:18.819Z,2.37
2018-07-10T00:57:47.320Z,1.90
2018-07-10T01:00:27.840Z,2.40
2018-07-10T01:02:56.350Z,2.77
2018-07-10T01:05:24.797Z,2.60
2018-07-10T01:07:53.257Z,2.70
2018-07-10T01:10:21.673Z,2.00
2018-07-10T01:12:50.133Z,3.07
2018-07-10T01:15:19.210Z,3.40
2018-07-10T01:17:47.993Z,2.70
2018-07-10T01:20:17.367Z,2.83
2018-07-10T01:22:45.957Z,3.00
2018-07-10T01:25:14.752Z,2.30
2018-07-10T01:27:43.293Z,1.93
2018-07-10T01:30:11.765Z,2.07
2018-07-10T01:32:41.640Z,2.30
2018-07-10T01:35:10.046Z,2.20
2018-07-10T01:37:38.580Z,2.00
2018-07-10T01:40:07.085Z,2.20
2018-07-10T01:42:35.543Z,2.10
2018-07-10T01:45:04.242Z,2.43
2018-07-10T01:47:32.703Z,2.00
2018-07-10T01:50:01.179Z,1.93
2018-07-10T01:52:29.686Z,1.97
2018-07-10T01:54:58.253Z,1.60
2018-07-10T01:57:27.176Z,2.33
2018-07-10T01:59:56.018Z,1.60
2018-07-10T02:02:25.117Z,1.77
2018-07-10T02:04:55.257Z,1.87
2018-07-10T02:07:24.912Z,1.80
2018-07-10T02:09:53.449Z,2.10
2018-07-10T02:12:22.013Z,1.53
2018-07-10T02:14:50.521Z,2.30
2018-07-10T02:17:19.079Z,1.87
2018-07-10T02:19:47.645Z,1.93
2018-07-10T02:22:16.981Z,2.33
2018-07-10T02:24:45.860Z,2.03
2018-07-10T02:27:15.480Z,1.97
2018-07-10T02:29:43.973Z,2.67
2018-07-10T02:32:12.462Z,2.37
2018-07-10T02:34:41.007Z,2.10
2018-07-10T02:37:09.655Z,2.07
2018-07-10T02:39:38.202Z,1.53
2018-07-10T02:42:06.798Z,1.83
2018-07-10T02:44:35.623Z,1.90
2018-07-10T02:47:04.122Z,2.20
2018-07-10T02:49:32.650Z,1.90
2018-07-10T02:52:03.293Z,2.37
2018-07-10T02:54:34.584Z,2.13
2018-07-10T02:57:05.300Z,1.70
2018-07-10T02:59:36.958Z,2.20
2018-07-10T03:02:06.861Z,2.20
2018-07-10T03:04:36.721Z,2.10
2018-07-10T03:07:05.730Z,1.90
2018-07-10T03:09:34.222Z,2.23
2018-07-10T03:12:04.190Z,2.10
2018-07-10T03:14:32.670Z,1.83
2018-07-10T03:17:01.441Z,2.00
2018-07-10T03:19:30.284Z,2.10
2018-07-10T03:21:58.732Z,2.50
2018-07-10T03:24:27.205Z,1.90
2018-07-10T03:26:55.733Z,2.17
2018-07-10T03:29:24.549Z,2.03
2018-07-10T03:31:53.993Z,2.23
2018-07-10T03:34:22.628Z,2.17
2018-07-10T03:36:51.384Z,2.13
2018-07-10T03:39:19.868Z,2.10
2018-07-10T03:41:48.341Z,2.40
2018-07-10T03:44:18.097Z,2.10
2018-07-10T03:46:46.553Z,2.17
2018-07-10T03:49:15.068Z,2.30
2018-07-10T03:51:43.561Z,1.90
2018-07-10T03:54:12.087Z,2.30
2018-07-10T03:56:40.578Z,2.30
2018-07-10T03:59:09.045Z,2.23
2018-07-10T04:01:38.252Z,2.10
2018-07-10T04:04:06.727Z,2.40
2018-07-10T04:06:35.522Z,2.13
2018-07-10T04:09:06.608Z,2.07
2018-07-10T04:11:35.185Z,2.30
2018-07-10T04:14:04.589Z,2.33
2018-07-10T04:16:33.053Z,2.80
2018-07-10T04:19:01.505Z,2.27
2018-07-10T04:21:33.293Z,2.50
2018-07-10T04:24:12.237Z,3.13
2018-07-10T04:27:15.202Z,4.20
2018-07-10T04:29:53.723Z,4.43
2018-07-10T04:32:22.550Z,3.83
2018-07-10T04:34:51.028Z,3.43
2018-07-10T04:37:19.521Z,3.23
2018-07-10T04:39:47.990Z,3.00
2018-07-10T04:42:36.104Z,3.70
2018-07-10T04:45:11.419Z,3.90
2018-07-10T04:47:59.801Z,4.27
2018-07-10T04:50:46.962Z,3.97
2018-07-10T04:53:23.846Z,3.27
2018-07-10T04:55:52.446Z,3.37
2018-07-10T04:58:22.058Z,3.50
2018-07-10T05:01:01.819Z,3.07
2018-07-10T05:03:31.221Z,2.60
2018-07-10T05:06:04.167Z,3.07
2018-07-10T05:08:32.674Z,2.10
2018-07-10T05:11:01.369Z,2.33
2018-07-10T05:13:29.925Z,2.30
2018-07-10T05:16:03.350Z,2.63
2018-07-10T05:18:32.487Z,2.70
2018-07-10T05:21:03.590Z,2.00
2018-07-10T05:23:32.093Z,2.00
2018-07-10T05:26:00.572Z,1.70
2018-07-10T05:28:29.129Z,1.93
2018-07-10T05:31:01.431Z,2.20
2018-07-10T05:33:30.185Z,1.77
2018-07-10T05:35:59.083Z,2.23
2018-07-10T05:38:36.754Z,1.93
2018-07-10T05:41:05.445Z,1.70
2018-07-10T05:43:38.853Z,2.00
2018-07-10T05:46:07.373Z,1.70
2018-07-10T05:48:36.545Z,2.30
2018-07-10T05:51:05.009Z,2.03
2018-07-10T05:53:33.493Z,2.10
2018-07-10T05:56:02.097Z,2.47
2018-07-10T05:58:30.656Z,2.40
2018-07-10T06:00:59.112Z,2.13
2018-07-10T06:03:27.542Z,2.00
2018-07-10T06:05:56.087Z,1.70
2018-07-10T06:08:24.589Z,2.07
2018-07-10T06:10:53.110Z,1.80
2018-07-10T06:13:21.553Z,2.03
2018-07-10T06:15:50.058Z,2.23
2018-07-10T06:18:18.528Z,1.47
2018-07-10T06:20:47.069Z,1.80
2018-07-10T06:23:15.556Z,2.00
2018-07-10T06:25:44.045Z,1.93
2018-07-10T06:28:16.082Z,1.87
2018-07-10T06:30:44.641Z,1.17
2018-07-10T06:33:21.643Z,1.73
2018-07-10T06:35:54.546Z,1.70
2018-07-10T06:38:23.055Z,1.87
2018-07-10T06:40:51.956Z,1.70
2018-07-10T06:43:26.198Z,1.60
2018-07-10T06:45:54.865Z,1.50
2018-07-10T06:48:23.952Z,1.60
2018-07-10T06:50:52.492Z,1.93
2018-07-10T06:53:24.259Z,1.60
2018-07-10T06:55:57.449Z,2.00
2018-07-10T06:58:26.453Z,1.60
2018-07-10T07:00:56.200Z,1.07
2018-07-10T07:03:25.991Z,1.53
2018-07-10T07:05:55.019Z,1.80
2018-07-10T07:08:24.760Z,2.03
2018-07-10T07:10:53.279Z,1.53
2018-07-10T07:13:21.814Z,1.43
2018-07-10T07:15:50.301Z,1.57
2018-07-10T07:18:18.828Z,1.50
2018-07-10T07:20:47.297Z,1.47
2018-07-10T07:23:15.813Z,1.43
2018-07-10T07:25:45.024Z,1.43
2018-07-10T07:28:13.561Z,1.70
2018-07-10T07:30:42.057Z,1.37
2018-07-10T07:33:10.562Z,1.70
2018-07-10T07:35:39.055Z,1.47
2018-07-10T07:38:07.618Z,1.80
2018-07-10T07:40:36.245Z,1.03
2018-07-10T07:43:06.801Z,1.40
2018-07-10T07:45:36.330Z,1.30
2018-07-10T07:48:04.908Z,1.27
2018-07-10T07:50:33.507Z,1.30
2018-07-10T07:53:02.253Z,1.47
2018-07-10T07:55:32.105Z,1.93
2018-07-10T07:58:00.617Z,1.33
2018-07-10T08:00:29.107Z,1.50
2018-07-10T08:02:58.801Z,1.57
2018-07-10T08:05:27.238Z,1.87
2018-07-10T08:07:55.708Z,1.40
2018-07-10T08:10:24.402Z,1.80
2018-07-10T08:12:53.229Z,1.50
2018-07-10T08:15:21.745Z,1.93
2018-07-10T08:17:50.252Z,1.57
2018-07-10T08:20:19.049Z,1.60
2018-07-10T08:22:47.526Z,1.80
2018-07-10T08:25:19.634Z,1.90
2018-07-10T08:27:50.965Z,1.87
2018-07-10T08:30:19.658Z,1.53
2018-07-10T08:32:49.832Z,2.00
2018-07-10T08:35:18.489Z,1.83
2018-07-10T08:37:47.012Z,1.93
2018-07-10T08:40:15.471Z,1.80
2018-07-10T08:42:43.940Z,1.60
2018-07-10T08:45:13.368Z,1.70
2018-07-10T08:47:42.393Z,1.20
2018-07-10T08:50:11.526Z,1.70
2018-07-10T08:52:40.069Z,1.43
2018-07-10T08:55:08.526Z,1.50
2018-07-10T08:57:36.986Z,2.00
2018-07-10T09:00:05.564Z,1.87
2018-07-10T09:02:34.051Z,1.90
2018-07-10T09:05:02.537Z,1.70
2018-07-10T09:07:30.994Z,1.80
2018-07-10T09:09:59.470Z,1.90
2018-07-10T09:12:27.941Z,1.53
2018-07-10T09:14:56.509Z,1.67
2018-07-10T09:17:25.220Z,1.40
2018-07-10T09:19:53.666Z,1.50
2018-07-10T09:22:22.152Z,1.40
2018-07-10T09:24:54.006Z,1.20
2018-07-10T09:27:23.585Z,1.60
2018-07-10T09:29:52.165Z,1.60
2018-07-10T09:32:26.647Z,1.70
2018-07-10T09:34:56.887Z,1.80
2018-07-10T09:37:30.696Z,1.77
2018-07-10T09:40:04.605Z,1.50
2018-07-10T09:42:35.829Z,1.40
2018-07-10T09:45:05.205Z,1.50
2018-07-10T09:47:33.732Z,1.40
2018-07-10T09:50:02.481Z,1.30
2018-07-10T09:52:31.046Z,1.47
2018-07-10T09:54:59.765Z,1.73
2018-07-10T09:57:40.568Z,1.10
2018-07-10T10:00:09.079Z,1.60
2018-07-10T10:02:38.428Z,1.27
2018-07-10T10:05:07.677Z,1.60
2018-07-10T10:07:36.585Z,1.67
2018-07-10T10:10:05.481Z,1.80
2018-07-10T10:12:34.423Z,1.63
2018-07-10T10:15:02.965Z,1.50
2018-07-10T10:17:34.416Z,1.50
2018-07-10T10:20:04.134Z,1.27
2018-07-10T10:22:33.607Z,1.27
2018-07-10T10:25:03.528Z,1.10
2018-07-10T10:27:32.712Z,1.50
2018-07-10T10:30:02.048Z,1.43
2018-07-10T10:32:30.969Z,1.40
2018-07-10T10:34:59.861Z,1.60
2018-07-10T10:37:28.596Z,1.40
2018-07-10T10:39:57.625Z,1.57
2018-07-10T10:42:27.753Z,1.50
2018-07-10T10:44:59.702Z,1.50
2018-07-10T10:47:33.305Z,1.73
2018-07-10T10:50:02.783Z,1.33
2018-07-10T10:52:31.434Z,1.77
2018-07-10T10:55:02.862Z,1.40
2018-07-10T10:57:39.955Z,2.17
2018-07-10T11:00:08.798Z,1.17
2018-07-10T11:02:37.347Z,1.67
2018-07-10T11:05:05.830Z,1.63
2018-07-10T11:07:40.268Z,1.90
2018-07-10T11:10:08.766Z,1.60
2018-07-10T11:12:37.235Z,1.53
2018-07-10T11:15:06.498Z,2.00
2018-07-10T11:17:45.038Z,1.63
2018-07-10T11:20:22.474Z,1.67
2018-07-10T11:23:01.799Z,1.57
2018-07-10T11:25:33.637Z,1.80
2018-07-10T11:28:05.430Z,1.83
2018-07-10T11:30:34.269Z,1.63
2018-07-10T11:33:04.162Z,1.73
2018-07-10T11:35:33.377Z,2.03
2018-07-10T11:38:10.441Z,1.83
2018-07-10T11:40:44.337Z,1.67
2018-07-10T11:43:19.204Z,1.50
2018-07-10T11:45:47.688Z,1.80
2018-07-10T11:48:16.173Z,1.27
2018-07-10T11:50:44.593Z,1.83
2018-07-10T11:53:13.109Z,2.20
2018-07-10T11:55:41.597Z,1.83
2018-07-10T11:58:10.294Z,2.00
2018-07-10T12:00:39.108Z,1.80
2018-07-10T12:03:08.125Z,2.10
2018-07-10T12:05:38.384Z,2.00
2018-07-10T12:08:06.930Z,2.20
2018-07-10T12:10:36.428Z,1.67
2018-07-10T12:13:04.915Z,1.73
2018-07-10T12:15:33.402Z,2.37
2018-07-10T12:18:03.904Z,2.30
2018-07-10T12:20:37.746Z,2.50
2018-07-10T12:23:08.261Z,2.10
2018-07-10T12:25:39.573Z,1.90
2018-07-10T12:28:09.469Z,2.10
2018-07-10T12:30:38.045Z,2.47
2018-07-10T12:33:06.885Z,2.67
2018-07-10T12:35:35.384Z,3.03
2018-07-10T12:38:03.922Z,2.50
2018-07-10T12:40:32.530Z,2.67
2018-07-10T12:43:01.010Z,2.70
2018-07-10T12:45:29.507Z,2.93
2018-07-10T12:47:59.931Z,3.00
2018-07-10T12:50:28.606Z,2.67
2018-07-10T12:52:57.193Z,2.70
2018-07-10T12:55:26.998Z,2.17
2018-07-10T12:57:56.344Z,3.13
2018-07-10T13:00:26.596Z,2.97
2018-07-10T13:02:55.138Z,2.60
2018-07-10T13:05:27.408Z,2.73
2018-07-10T13:07:55.893Z,3.03
2018-07-10T13:10:24.509Z,3.07
2018-07-10T13:12:53.081Z,2.67
2018-07-10T13:15:21.541Z,2.67
2018-07-10T13:17:51.264Z,2.63
2018-07-10T13:20:20.170Z,4.27
2018-07-10T13:22:48.647Z,3.00
2018-07-10T13:25:21.651Z,3.83
2018-07-10T13:27:50.595Z,3.67
2018-07-10T13:30:19.234Z,3.80
2018-07-10T13:32:48.129Z,4.03
2018-07-10T13:35:16.645Z,4.40
2018-07-10T13:37:45.766Z,4.27
2018-07-10T13:40:14.596Z,4.27
2018-07-10T13:42:54.626Z,4.57
2018-07-10T13:45:25.281Z,5.23
2018-07-10T13:47:53.862Z,5.30
2018-07-10T13:50:27.389Z,4.90
2018-07-10T13:52:56.760Z,4.67
2018-07-10T13:55:25.553Z,4.47
2018-07-10T13:57:57.799Z,4.30
2018-07-10T14:00:26.376Z,4.37
2018-07-10T14:02:55.393Z,4.07
2018-07-10T14:05:24.928Z,3.87
2018-07-10T14:07:53.882Z,4.47
2018-07-10T14:10:22.969Z,4.93
2018-07-10T14:12:51.438Z,3.80
2018-07-10T14:15:19.945Z,4.30
2018-07-10T14:17:48.705Z,4.30
2018-07-10T14:20:17.205Z,3.80
2018-07-10T14:22:45.894Z,4.80
2018-07-10T14:25:14.333Z,5.07
2018-07-10T14:27:42.789Z,5.37
2018-07-10T14:30:11.382Z,6.00
2018-07-10T14:32:39.828Z,5.40
2018-07-10T14:35:08.314Z,4.80
2018-07-10T14:37:37.382Z,4.80
2018-07-10T14:40:05.914Z,4.43
2018-07-10T14:42:34.414Z,4.97
2018-07-10T14:45:06.653Z,4.67
2018-07-10T14:47:37.761Z,4.83
2018-07-10T14:50:06.353Z,4.77
2018-07-10T14:52:34.930Z,4.63
2018-07-10T14:55:03.472Z,4.97
2018-07-10T14:57:32.016Z,4.90
2018-07-10T15:00:00.804Z,4.80
2018-07-10T15:02:29.352Z,5.03
2018-07-10T15:04:57.872Z,4.70
2018-07-10T15:07:26.349Z,4.20
2018-07-10T15:09:54.797Z,4.60
2018-07-10T15:12:23.285Z,4.87
2018-07-10T15:14:52.018Z,4.57
2018-07-10T15:17:25.920Z,4.40
2018-07-10T15:19:54.528Z,4.17
2018-07-10T15:22:23.050Z,4.70
2018-07-10T15:24:51.545Z,4.43
2018-07-10T15:27:20.011Z,4.53
2018-07-10T15:29:48.588Z,3.87
2018-07-10T15:32:17.089Z,4.73
2018-07-10T15:34:45.602Z,4.40
2018-07-10T15:37:14.150Z,4.70
2018-07-10T15:39:42.630Z,4.33
2018-07-10T15:42:11.228Z,4.80
2018-07-10T15:44:39.721Z,4.13
2018-07-10T15:47:08.213Z,4.70
2018-07-10T15:49:36.720Z,4.50
2018-07-10T15:52:05.673Z,3.70
2018-07-10T15:54:34.183Z,4.20
2018-07-10T15:57:02.667Z,4.97
2018-07-10T15:59:31.137Z,4.57
2018-07-10T16:01:59.641Z,4.70
2018-07-10T16:04:28.132Z,4.67
2018-07-10T16:06:56.676Z,5.07
2018-07-10T16:09:25.157Z,5.53
2018-07-10T16:11:58.993Z,6.83
2018-07-10T16:14:28.561Z,6.87
2018-07-10T16:16:57.554Z,7.17
2018-07-10T16:19:30.416Z,6.93
2018-07-10T16:22:03.498Z,6.57
2018-07-10T16:24:35.422Z,6.93
2018-07-10T16:27:03.921Z,6.70
2018-07-10T16:29:32.370Z,6.50
2018-07-10T16:32:02.500Z,7.10
2018-07-10T16:34:31.018Z,7.27
2018-07-10T16:36:59.503Z,9.17
2018-07-10T16:39:27.995Z,11.17
2018-07-10T16:42:01.756Z,9.47
2018-07-10T16:44:30.294Z,8.73
2018-07-10T16:47:06.012Z,8.93
2018-07-10T16:49:39.738Z,9.37
2018-07-10T16:52:13.433Z,8.70
2018-07-10T16:54:42.006Z,8.67
2018-07-10T16:57:10.546Z,7.57
2018-07-10T16:59:39.885Z,7.73
2018-07-10T17:02:08.425Z,7.80
2018-07-10T17:04:37.601Z,8.13
2018-07-10T17:07:06.131Z,8.33
2018-07-10T17:09:34.804Z,8.17
2018-07-10T17:12:03.366Z,8.00
2018-07-10T17:14:31.889Z,8.37
2018-07-10T17:17:00.434Z,8.33
2018-07-10T17:19:29.718Z,8.33
2018-07-10T17:21:58.250Z,9.00
2018-07-10T17:24:26.809Z,9.10
2018-07-10T17:26:55.437Z,9.83
2018-07-10T17:29:24.032Z,9.67
2018-07-10T17:31:52.589Z,10.23
2018-07-10T17:34:21.190Z,10.40
2018-07-10T17:36:50.181Z,10.33
2018-07-10T17:39:19.025Z,10.70
2018-07-10T17:41:47.858Z,10.43
2018-07-10T17:44:16.474Z,10.33
2018-07-10T17:46:44.979Z,9.50
2018-07-10T17:49:13.604Z,9.47
2018-07-10T17:51:42.317Z,9.40
2018-07-10T17:54:10.803Z,9.97
2018-07-10T17:56:39.387Z,8.70
2018-07-10T17:59:08.693Z,9.40
2018-07-10T18:01:37.880Z,10.33
2018-07-10T18:04:06.989Z,9.60
2018-07-10T18:06:35.872Z,8.10
2018-07-10T18:09:05.505Z,8.60
2018-07-10T18:11:33.991Z,8.00
2018-07-10T18:14:02.468Z,8.67
2018-07-10T18:16:33.778Z,8.30
2018-07-10T18:19:03.020Z,8.83
2018-07-10T18:21:31.985Z,8.07
2018-07-10T18:24:00.645Z,8.97
2018-07-10T18:26:29.162Z,9.20
2018-07-10T18:28:57.713Z,9.70
2018-07-10T18:31:27.122Z,8.93
2018-07-10T18:33:55.770Z,10.37
2018-07-10T18:36:24.323Z,11.43
2018-07-10T18:38:52.798Z,10.63
2018-07-10T18:41:21.321Z,10.40
2018-07-10T18:43:49.853Z,11.13
2018-07-10T18:46:18.364Z,11.43
2018-07-10T18:48:46.969Z,9.87
2018-07-10T18:51:15.455Z,11.17
2018-07-10T18:53:44.074Z,9.57
2018-07-10T18:56:12.658Z,10.10
2018-07-10T18:58:49.528Z,9.70
2018-07-10T19:01:58.338Z,10.57
2018-07-10T19:05:07.372Z,9.60
2018-07-10T19:07:38.437Z,10.53
2018-07-10T19:10:07.284Z,10.13
2018-07-10T19:12:36.427Z,10.20
2018-07-10T19:15:05.226Z,10.03
2018-07-10T19:17:34.437Z,9.97
2018-07-10T19:20:07.914Z,10.77
2018-07-10T19:23:10.902Z,10.33
2018-07-10T19:25:39.480Z,11.07
2018-07-10T19:28:08.255Z,10.87
2018-07-10T19:30:45.821Z,10.10
2018-07-10T19:33:14.403Z,10.80
2018-07-10T19:35:43.691Z,11.20
2018-07-10T19:38:12.723Z,12.33
2018-07-10T19:40:41.262Z,11.23
2018-07-10T19:43:13.483Z,11.53
2018-07-10T19:45:43.745Z,11.90
2018-07-10T19:48:14.426Z,11.80
2018-07-10T19:50:44.377Z,12.17
2018-07-10T19:53:13.049Z,12.83
2018-07-10T19:55:44.603Z,11.43
2018-07-10T19:58:26.343Z,12.87
2018-07-10T20:02:03.371Z,12.27
2018-07-10T20:04:47.076Z,11.90
2018-07-10T20:07:20.405Z,12.97
2018-07-10T20:10:11.188Z,13.87
2018-07-10T20:12:42.817Z,12.57
2018-07-10T20:15:21.905Z,11.77
2018-07-10T20:17:59.363Z,12.33
2018-07-10T20:20:30.062Z,11.20
2018-07-10T20:23:04.200Z,11.50
2018-07-10T20:25:42.458Z,11.90
2018-07-10T20:28:23.421Z,12.27
2018-07-10T20:33:36.926Z,12.77
2018-07-10T20:36:06.483Z,12.33
2018-07-10T20:38:35.337Z,12.63
2018-07-10T20:41:05.133Z,11.53
2018-07-10T20:43:39.448Z,12.73
2018-07-10T20:46:09.801Z,11.80
2018-07-10T20:48:46.710Z,12.17
2018-07-10T20:51:15.236Z,11.93
2018-07-10T20:53:53.805Z,11.00
2018-07-10T20:56:36.554Z,11.20
2018-07-10T20:59:12.994Z,11.23
2018-07-10T21:01:42.390Z,11.37
2018-07-10T21:04:33.342Z,10.20
2018-07-10T21:07:04.756Z,9.90
2018-07-10T21:10:50.418Z,10.07
2018-07-10T21:13:44.004Z,9.67
2018-07-10T21:17:17.638Z,9.17
2018-07-10T21:19:56.581Z,9.23
2018-07-10T21:24:10.113Z,9.27
2018-07-10T21:26:42.960Z,8.23
2018-07-10T21:30:20.748Z,8.70
2018-07-10T21:32:59.126Z,8.20
2018-07-10T21:35:32.949Z,7.90
2018-07-10T21:38:07.034Z,7.87
2018-07-10T21:41:54.951Z,7.63
2018-07-10T21:44:39.215Z,7.33
2018-07-10T21:47:16.781Z,7.13
2018-07-10T21:49:48.069Z,6.90
2018-07-10T21:52:16.586Z,6.73
2018-07-10T21:54:50.082Z,6.33
2018-07-10T21:57:23.409Z,6.63
2018-07-10T22:00:06.642Z,7.40
2018-07-10T22:02:35.090Z,6.73
2018-07-10T22:05:03.575Z,6.60
2018-07-10T22:07:32.045Z,6.67
2018-07-10T22:10:03.121Z,5.87
2018-07-10T22:12:31.589Z,5.93
2018-07-10T22:15:00.305Z,5.27
2018-07-10T22:17:28.893Z,5.10
2018-07-10T22:19:58.616Z,4.73
2018-07-10T22:22:30.378Z,4.77
2018-07-10T22:25:02.098Z,4.87
2018-07-10T22:27:30.502Z,4.47
2018-07-10T22:30:05.017Z,5.13
2018-07-10T22:32:45.214Z,4.40
2018-07-10T22:35:14.771Z,4.80
2018-07-10T22:37:43.413Z,4.50
2018-07-10T22:40:11.885Z,4.50
2018-07-10T22:42:40.298Z,4.60
2018-07-10T22:45:08.750Z,4.77
2018-07-10T22:47:37.458Z,4.43
2018-07-10T22:50:07.916Z,4.30
2018-07-10T22:52:39.876Z,4.27
2018-07-10T22:55:08.766Z,4.53
2018-07-10T22:57:37.277Z,4.43
2018-07-10T23:00:05.830Z,4.20
2018-07-10T23:02:40.702Z,4.23
2018-07-10T23:05:09.254Z,3.97
2018-07-10T23:07:37.827Z,4.20
2018-07-10T23:10:06.374Z,4.47
2018-07-10T23:12:34.922Z,4.23
2018-07-10T23:15:03.437Z,4.40
2018-07-10T23:17:32.127Z,4.23
2018-07-10T23:20:00.669Z,4.37
2018-07-10T23:22:40.274Z,3.87
2018-07-10T23:25:08.847Z,4.50
2018-07-10T23:27:37.405Z,3.83
2018-07-10T23:30:05.985Z,4.17
2018-07-10T23:32:34.528Z,3.40
2018-07-10T23:35:03.025Z,4.20
2018-07-10T23:37:31.576Z,3.80
2018-07-10T23:40:05.413Z,3.70
2018-07-10T23:42:36.235Z,4.00
2018-07-10T23:45:13.813Z,3.53
2018-07-10T23:47:42.706Z,4.07
2018-07-10T23:50:16.769Z,3.63
2018-07-10T23:52:56.132Z,3.80
2018-07-10T23:55:24.688Z,4.10
2018-07-10T23:57:53.126Z,4.37
